Portada
METAR-TAF:

METAR-TAF

Aeropuertos :

Aeropuerto de Burdeos-Mérignac

Burdeos, Francia

latitud: 44-50N, longitud: 000-42W, altitud: 49 m

Observación

El informe se hizo hace 39 minutos, a las 00:00 UTC
Viento 4 kt del este-sureste
Temperatura 10°C
Humedad 76%
Presión 1024 hPa
Visibilidad 10 km o más
sin nubes por debajo de 1500 m y sin presencia de cumulonimbus.

METAR: LFBD 020000Z AUTO 12004KT CAVOK 10/06 Q1024 NOSIG

Hora: 01:39 (00:39 UTC)

Pronóstico

El informe se hizo hace 1 hora y 39 minutos, a las 23:00 UTC
Pronóstico válido del 02 a las 00 UTC al 03 a las 06 UTC
Viento 10 kt del sureste
Visibilidad 10 km o más
sin nubes por debajo de 1500 m y sin presencia de cumulonimbus.
Temporalmente
del 02 a las 00 UTC al 02 a las 07 UTC
Viento 5 kt del este-sureste

TAF: LFBD 012300Z 0200/0306 13010KT CAVOK TX18/0215Z TN07/0206Z TEMPO 0200/0207 11005KT

Observaciones y pronósticos meteorológicos de más de 4000 aeropuertos (mensajes METAR y TAF).

Los puntos amarillos y rojos representan las estaciones disponibles.

Ponga el ratón en el punto deseado para ver el nombre de la estación.

Haga clic para ver las observaciones y los pronósticos meteorológicos.

Para cambiar el mapa : haga clic en los botones verdes con una cruz de color negro para hacer un zoom, en el botón verde con un guión para alejar o en las flechas verdes para mapas adyacentes.


METAR-TAF: